Bangui, Central African Republic
Current Conditions -  °F | °C
As of 8:00 AM on Wednesday 26 Nov 2014 (Local Time) from FEFF Reporting Station
Broken Clouds Broken Clouds  
Wind Chill: 77°   Ceiling: 400
Heat Index: 78°   Visibility: 4mi
Dew Point: 73°   Wind: 0mph
Humidity: 89%   Direction: NA
Pressure: 29.91"   Gusts: NA
Location:  4.36°N, 18.56°E
Report Text: FEFF 260700Z 00000KT 6000 BKN004 25/23 Q1013 BECMG SCT010
Loading
Personal Weather Stations






























Interactive Weather Map New forecast layout! Learn more

10-Day Weather Forecast

Advertisements
Track Severe Weather on mobile